Orbital elements of SAUDICOMSAT 4
| Launched | 16 April 2007 |
| Flight ended | – |
| Launch site | Tyuratam Missile and Space Center, Kazakhstan (Also known as Baikonur Cosmodrome) |
| Owner | Saudi Arabia |
| NORAD ID | 31127 |
| Date fetched |
Epoch osculation |
Inc. [°] |
Ecc. | RA asc node [hr] |
Arg Peri. [°] |
Mean anom [°] |
Mean motion [rev/day] |
Abs. mag |
| Date fetched |
Epoch osculation |
Inc. [°] |
Ecc. | RA asc node [hr] |
Arg Peri. [°] |
Mean anom [°] |
Mean motion [rev/day] |
Abs. mag |
| 2026 May 08 17:57 | 2026 May 07 21:53:29 | 98.3961 | 0.00641 | 6.6446 | 25.3241 | 335.1077 | 14.64464 | – |
| 2026 May 07 17:58 | 2026 May 07 03:51:14 | 98.3961 | 0.00641 | 6.5935 | 27.6433 | 335.1077 | 14.64464 | – |
| 2026 May 06 17:57 | 2026 May 06 09:48:58 | 98.3960 | 0.00642 | 6.5424 | 29.9712 | 335.1077 | 14.64464 | – |
| 2026 May 05 17:57 | 2026 May 05 09:13:09 | 98.3959 | 0.00642 | 6.4727 | 33.1299 | 335.1077 | 14.64464 | – |
| 2026 May 04 17:57 | 2026 May 04 08:37:21 | 98.3958 | 0.00643 | 6.4031 | 36.3032 | 335.1077 | 14.64464 | – |
| 2026 May 03 17:57 | 2026 May 03 08:01:32 | 98.3957 | 0.00643 | 6.3334 | 39.4669 | 335.1077 | 14.64464 | – |
| 2026 May 02 17:57 | 2026 May 02 09:04:06 | 98.3956 | 0.00644 | 6.2683 | 42.4103 | 335.1077 | 14.64464 | – |
| 2026 May 01 17:56 | 2026 May 01 08:28:17 | 98.3955 | 0.00645 | 6.1987 | 45.5597 | 335.1077 | 14.64464 | – |
| 2026 Apr 30 17:56 | 2026 Apr 29 20:23:45 | 98.3953 | 0.00645 | 6.0965 | 50.1809 | 335.1077 | 14.64464 | – |
| 2026 Apr 29 17:57 | 2026 Apr 29 10:33:25 | 98.3953 | 0.00645 | 6.0686 | 51.4412 | 335.1077 | 14.64464 | – |
| 2026 Apr 28 17:56 | 2026 Apr 28 08:19:12 | 98.3952 | 0.00646 | 5.9943 | 54.8047 | 335.1077 | 14.64464 | – |
| 2026 Apr 27 17:58 | 2026 Apr 27 09:21:46 | 98.3951 | 0.00646 | 5.9293 | 57.7400 | 335.1077 | 14.64464 | – |
| 2026 Apr 26 17:58 | 2026 Apr 25 21:17:13 | 98.3949 | 0.00647 | 5.8271 | 62.3360 | 335.1077 | 14.64464 | – |
| 2026 Apr 25 17:58 | 2026 Apr 25 09:48:29 | 98.3949 | 0.00647 | 5.7946 | 63.8124 | 335.1077 | 14.64464 | – |
| 2026 Apr 24 17:59 | 2026 Apr 23 15:10:23 | 98.3948 | 0.00647 | 5.6738 | 69.2485 | 335.1077 | 14.64464 | – |
| 2026 Apr 23 17:57 | 2026 Apr 23 03:41:39 | 98.3947 | 0.00647 | 5.6413 | 70.7147 | 335.1077 | 14.64464 | – |
| 2026 Apr 22 17:57 | 2026 Apr 21 20:32:15 | 98.3946 | 0.00648 | 5.5530 | 74.6897 | 335.1077 | 14.64464 | – |
| 2026 Apr 21 17:57 | 2026 Apr 21 09:03:32 | 98.3946 | 0.00648 | 5.5205 | 76.1539 | 335.1077 | 14.64464 | – |
| 2026 Apr 20 17:57 | 2026 Apr 20 08:27:41 | 98.3945 | 0.00648 | 5.4509 | 79.2924 | 335.1077 | 14.64464 | – |
| 2026 Apr 19 17:58 | 2026 Apr 19 11:08:37 | 98.3944 | 0.00648 | 5.3905 | 82.0169 | 335.1077 | 14.64464 | – |
| 2026 Apr 18 17:56 | 2026 Apr 18 03:59:13 | 98.3942 | 0.00648 | 5.3022 | 85.9892 | 335.1077 | 14.64464 | – |
| 2026 Apr 16 17:57 | 2026 Apr 16 04:25:55 | 98.3940 | 0.00648 | 5.1675 | 92.0596 | 335.1077 | 14.64464 | – |
| 2026 Apr 14 17:57 | 2026 Apr 14 04:52:36 | 98.3937 | 0.00648 | 5.0329 | 98.1266 | 335.1077 | 14.64464 | – |
| 2026 Apr 13 17:57 | 2026 Apr 13 04:16:45 | 98.3934 | 0.00648 | 4.9632 | 101.2664 | 335.1077 | 14.64464 | – |
| 2026 Apr 12 17:57 | 2026 Apr 12 10:14:27 | 98.3934 | 0.00648 | 4.9121 | 103.5675 | 335.1077 | 14.64464 | – |
| 2026 Apr 11 17:57 | 2026 Apr 11 09:38:36 | 98.3933 | 0.00647 | 4.8425 | 106.7067 | 335.1077 | 14.64464 | – |